Terminal Aerodrome Forecast
Issued by NWS

Home | Current Version | Previous Version | Text Only | Print | Product List | Glossary On
Versions: 1 2 3 4 5 6 7 8 9 10 11 12 13 14 15 16 17 18 19 20 21 22
681
FTUS44 KSJT 181018 AAB
TAFJCT
TAF AMD
KJCT 181018Z 1810/1906 16003KT 5SM BR OVC002
      TEMPO 1810/1811 1SM BR
     FM181100 14003KT 1/2SM FG OVC005
     FM181500 11002KT 2SM BR OVC015
     FM181800 18004KT P6SM OVC020
     FM190300 14002KT 4SM BR OVC050=

USA.gov is the U.S. government's official web portal to all federal, state and local government web resources and services.